LOT790 EETN-EPWA
Flight info
| Callsign | LOT790 |
|---|---|
| Flight time | 1h 22m |
| Altitude | 35000 |
| Route | ORTAX DCT OSLAX DCT BERIL DCT BOKSU/N0444F340 M857 GERVI DCT NEPOX |
| Aircraft | B738/M-SDE2E3FGHIJ1RWXY/LB1 |
Departure
| Time | 2026-05-05 19:02 |
|---|---|
| Airport | Lennart Meri Tallinn Airport (EETN) |
Arrival
| Time | 2026-05-05 20:25 |
|---|---|
| Airport | Warsaw Chopin Airport (EPWA) |
| Time | Latitude | Longitude | Altitude | Speed | Heading |
|---|---|---|---|---|---|
| 2026-05-05 18:18 | 59.41583 | 24.80134 | 161 ft | 0 kts | 0° |
| 2026-05-05 18:52 | 59.41574 | 24.80134 | 161 ft | 2 kts | 4° |
| 2026-05-05 18:53 | 59.41557 | 24.80131 | 161 ft | 2 kts | 10° |
| 2026-05-05 18:53 | 59.41542 | 24.80122 | 161 ft | 2 kts | 28° |
| 2026-05-05 18:53 | 59.41530 | 24.80100 | 161 ft | 2 kts | 75° |
| 2026-05-05 18:53 | 59.41528 | 24.80079 | 161 ft | 0 kts | 90° |
| 2026-05-05 18:54 | 59.41528 | 24.80078 | 161 ft | 0 kts | 90° |
| 2026-05-05 18:56 | 59.41528 | 24.80108 | 161 ft | 6 kts | 90° |
| 2026-05-05 18:57 | 59.41528 | 24.80262 | 161 ft | 16 kts | 90° |
| 2026-05-05 18:57 | 59.41517 | 24.80497 | 161 ft | 17 kts | 102° |
| 2026-05-05 18:57 | 59.41506 | 24.80728 | 161 ft | 17 kts | 90° |
| 2026-05-05 18:57 | 59.41506 | 24.80978 | 161 ft | 21 kts | 90° |
| 2026-05-05 18:58 | 59.41505 | 24.81320 | 161 ft | 29 kts | 90° |
| 2026-05-05 18:58 | 59.41504 | 24.81710 | 161 ft | 28 kts | 90° |
| 2026-05-05 18:58 | 59.41503 | 24.82087 | 161 ft | 26 kts | 91° |
| 2026-05-05 18:58 | 59.41501 | 24.82435 | 161 ft | 25 kts | 90° |
| 2026-05-05 18:59 | 59.41500 | 24.82760 | 161 ft | 23 kts | 90° |
| 2026-05-05 18:59 | 59.41500 | 24.83069 | 161 ft | 22 kts | 90° |
| 2026-05-05 18:59 | 59.41499 | 24.83370 | 161 ft | 22 kts | 90° |
| 2026-05-05 18:59 | 59.41498 | 24.83667 | 161 ft | 23 kts | 90° |
| 2026-05-05 19:00 | 59.41497 | 24.84017 | 161 ft | 27 kts | 90° |
| 2026-05-05 19:00 | 59.41497 | 24.84377 | 161 ft | 26 kts | 90° |
| 2026-05-05 19:00 | 59.41496 | 24.84718 | 161 ft | 24 kts | 90° |
| 2026-05-05 19:00 | 59.41461 | 24.84997 | 161 ft | 19 kts | 151° |
| 2026-05-05 19:01 | 59.41337 | 24.85007 | 161 ft | 10 kts | 199° |
| 2026-05-05 19:01 | 59.41321 | 24.84898 | 161 ft | 14 kts | 269° |
| 2026-05-05 19:01 | 59.41322 | 24.84298 | 160 ft | 78 kts | 270° |
| 2026-05-05 19:01 | 59.41325 | 24.82813 | 161 ft | 137 kts | 270° |
| 2026-05-05 19:02 | 59.41347 | 24.80734 | 531 ft | 153 kts | 271° |
| 2026-05-05 19:02 | 59.41347 | 24.78724 | 1424 ft | 148 kts | 268° |
| 2026-05-05 19:02 | 59.41012 | 24.76821 | 2109 ft | 157 kts | 232° |
| 2026-05-05 19:02 | 59.40013 | 24.75744 | 2772 ft | 169 kts | 206° |
| 2026-05-05 19:03 | 59.38912 | 24.74919 | 3476 ft | 175 kts | 207° |
| 2026-05-05 19:03 | 59.37684 | 24.73964 | 3793 ft | 202 kts | 206° |
| 2026-05-05 19:03 | 59.36309 | 24.72890 | 4034 ft | 224 kts | 206° |
| 2026-05-05 19:03 | 59.34807 | 24.71726 | 4382 ft | 242 kts | 205° |
| 2026-05-05 19:04 | 59.33164 | 24.70445 | 4723 ft | 263 kts | 206° |
| 2026-05-05 19:04 | 59.31477 | 24.69115 | 5672 ft | 259 kts | 206° |
| 2026-05-05 19:04 | 59.29805 | 24.67786 | 6556 ft | 260 kts | 206° |
| 2026-05-05 19:04 | 59.28137 | 24.66456 | 7482 ft | 256 kts | 207° |
| 2026-05-05 19:05 | 59.26501 | 24.65152 | 8457 ft | 253 kts | 208° |
| 2026-05-05 19:05 | 59.24881 | 24.63857 | 9390 ft | 251 kts | 208° |
| 2026-05-05 19:05 | 59.23268 | 24.62567 | 10194 ft | 253 kts | 208° |
| 2026-05-05 19:05 | 59.21573 | 24.61199 | 10418 ft | 276 kts | 208° |
| 2026-05-05 19:06 | 59.19729 | 24.59708 | 10604 ft | 298 kts | 208° |
| 2026-05-05 19:06 | 59.17759 | 24.58126 | 10957 ft | 312 kts | 208° |
| 2026-05-05 19:06 | 59.15725 | 24.56506 | 11603 ft | 317 kts | 208° |
| 2026-05-05 19:06 | 59.13674 | 24.54882 | 12371 ft | 320 kts | 208° |
| 2026-05-05 19:07 | 59.11609 | 24.53246 | 13144 ft | 322 kts | 208° |
| 2026-05-05 19:07 | 59.09520 | 24.51591 | 13890 ft | 325 kts | 208° |
| 2026-05-05 19:07 | 59.07416 | 24.49924 | 14585 ft | 329 kts | 208° |
| 2026-05-05 19:07 | 59.05290 | 24.48241 | 15298 ft | 332 kts | 209° |
| 2026-05-05 19:08 | 59.03142 | 24.46541 | 16015 ft | 335 kts | 209° |
| 2026-05-05 19:08 | 59.00972 | 24.44827 | 16679 ft | 338 kts | 209° |
| 2026-05-05 19:08 | 58.98772 | 24.43089 | 17296 ft | 344 kts | 209° |
| 2026-05-05 19:08 | 58.96547 | 24.41335 | 17998 ft | 347 kts | 209° |
| 2026-05-05 19:09 | 58.94304 | 24.39571 | 18639 ft | 349 kts | 209° |
| 2026-05-05 19:09 | 58.92046 | 24.37798 | 19250 ft | 351 kts | 209° |
| 2026-05-05 19:09 | 58.89799 | 24.36034 | 19851 ft | 354 kts | 209° |
| 2026-05-05 19:09 | 58.87482 | 24.34219 | 20454 ft | 357 kts | 209° |
| 2026-05-05 19:10 | 58.85173 | 24.32416 | 21036 ft | 360 kts | 208° |
| 2026-05-05 19:10 | 58.82782 | 24.30834 | 21600 ft | 366 kts | 205° |
| 2026-05-05 19:10 | 58.80321 | 24.29454 | 22161 ft | 370 kts | 203° |
| 2026-05-05 19:10 | 58.77801 | 24.28257 | 22709 ft | 376 kts | 200° |
| 2026-05-05 19:11 | 58.75221 | 24.27240 | 23254 ft | 380 kts | 199° |
| 2026-05-05 19:11 | 58.72651 | 24.26299 | 23664 ft | 384 kts | 199° |
| 2026-05-05 19:11 | 58.70012 | 24.25350 | 24062 ft | 387 kts | 198° |
| 2026-05-05 19:11 | 58.67354 | 24.24390 | 24493 ft | 389 kts | 198° |
| 2026-05-05 19:12 | 58.64688 | 24.23417 | 24909 ft | 392 kts | 199° |
| 2026-05-05 19:12 | 58.61999 | 24.22424 | 25309 ft | 395 kts | 199° |
| 2026-05-05 19:12 | 58.59294 | 24.21418 | 25699 ft | 397 kts | 199° |
| 2026-05-05 19:12 | 58.56573 | 24.20402 | 26094 ft | 400 kts | 199° |
| 2026-05-05 19:13 | 58.53831 | 24.19376 | 26488 ft | 402 kts | 199° |
| 2026-05-05 19:13 | 58.51080 | 24.18347 | 26856 ft | 405 kts | 198° |
| 2026-05-05 19:13 | 58.48306 | 24.17310 | 27219 ft | 407 kts | 198° |
| 2026-05-05 19:13 | 58.45515 | 24.16267 | 27531 ft | 410 kts | 198° |
| 2026-05-05 19:14 | 58.42702 | 24.15218 | 27840 ft | 413 kts | 198° |
| 2026-05-05 19:14 | 58.39875 | 24.14165 | 28166 ft | 416 kts | 198° |
| 2026-05-05 19:14 | 58.37024 | 24.13106 | 28509 ft | 418 kts | 198° |
| 2026-05-05 19:14 | 58.34162 | 24.12045 | 28852 ft | 420 kts | 198° |
| 2026-05-05 19:15 | 58.31286 | 24.10981 | 29231 ft | 421 kts | 198° |
| 2026-05-05 19:15 | 58.28412 | 24.09922 | 29728 ft | 420 kts | 198° |
| 2026-05-05 19:15 | 58.25554 | 24.08871 | 30190 ft | 418 kts | 198° |
| 2026-05-05 19:15 | 58.22697 | 24.07821 | 30554 ft | 417 kts | 198° |
| 2026-05-05 19:16 | 58.19847 | 24.06772 | 30880 ft | 418 kts | 198° |
| 2026-05-05 19:16 | 58.16994 | 24.05724 | 31200 ft | 418 kts | 198° |
| 2026-05-05 19:16 | 58.14133 | 24.04674 | 31488 ft | 419 kts | 198° |
| 2026-05-05 19:16 | 58.11273 | 24.03625 | 31802 ft | 418 kts | 197° |
| 2026-05-05 19:17 | 58.08431 | 24.02589 | 32280 ft | 415 kts | 197° |
| 2026-05-05 19:17 | 58.05596 | 24.01556 | 32614 ft | 415 kts | 197° |
| 2026-05-05 19:17 | 58.02755 | 24.00519 | 32858 ft | 417 kts | 197° |
| 2026-05-05 19:17 | 57.99904 | 23.99480 | 33164 ft | 417 kts | 197° |
| 2026-05-05 19:18 | 57.97054 | 23.98445 | 33517 ft | 417 kts | 197° |
| 2026-05-05 19:18 | 57.94210 | 23.97414 | 33855 ft | 416 kts | 197° |
| 2026-05-05 19:18 | 57.91368 | 23.96385 | 34098 ft | 417 kts | 197° |
| 2026-05-05 19:18 | 57.88520 | 23.95356 | 34312 ft | 417 kts | 197° |
| 2026-05-05 19:19 | 57.85667 | 23.94326 | 34548 ft | 417 kts | 197° |
| 2026-05-05 19:19 | 57.82812 | 23.93297 | 34786 ft | 418 kts | 197° |
| 2026-05-05 19:19 | 57.79955 | 23.92268 | 34887 ft | 421 kts | 197° |
| 2026-05-05 19:19 | 57.77104 | 23.91241 | 34900 ft | 423 kts | 197° |
| 2026-05-05 19:20 | 57.71329 | 23.89175 | 34890 ft | 420 kts | 197° |
| 2026-05-05 19:20 | 57.65634 | 23.87149 | 34888 ft | 415 kts | 197° |
| 2026-05-05 19:21 | 57.59952 | 23.85125 | 34880 ft | 415 kts | 197° |
| 2026-05-05 19:21 | 57.55236 | 23.83450 | 34887 ft | 415 kts | 197° |
| 2026-05-05 19:22 | 57.49526 | 23.81428 | 34894 ft | 415 kts | 197° |
| 2026-05-05 19:22 | 57.43887 | 23.79438 | 34893 ft | 415 kts | 197° |
| 2026-05-05 19:23 | 57.38207 | 23.77440 | 34894 ft | 415 kts | 197° |
| 2026-05-05 19:23 | 57.32528 | 23.75450 | 34867 ft | 415 kts | 197° |
| 2026-05-05 19:24 | 57.26853 | 23.73467 | 34882 ft | 415 kts | 197° |
| 2026-05-05 19:24 | 57.21183 | 23.71492 | 34895 ft | 415 kts | 197° |
| 2026-05-05 19:25 | 57.15511 | 23.69522 | 34893 ft | 415 kts | 197° |
| 2026-05-05 19:25 | 57.09846 | 23.67561 | 34889 ft | 415 kts | 197° |
| 2026-05-05 19:26 | 57.04169 | 23.65602 | 34885 ft | 414 kts | 197° |
| 2026-05-05 19:26 | 56.98499 | 23.63651 | 34897 ft | 414 kts | 197° |
| 2026-05-05 19:27 | 56.92832 | 23.61707 | 34907 ft | 415 kts | 197° |
| 2026-05-05 19:27 | 56.87158 | 23.59767 | 34906 ft | 415 kts | 197° |
| 2026-05-05 19:28 | 56.81478 | 23.57831 | 34903 ft | 415 kts | 197° |
| 2026-05-05 19:28 | 56.75802 | 23.55903 | 34889 ft | 415 kts | 197° |
| 2026-05-05 19:29 | 56.70128 | 23.53981 | 34893 ft | 414 kts | 197° |
| 2026-05-05 19:29 | 56.64503 | 23.52081 | 34893 ft | 414 kts | 197° |
| 2026-05-05 19:30 | 56.58845 | 23.50175 | 34897 ft | 413 kts | 197° |
| 2026-05-05 19:30 | 56.53196 | 23.48279 | 34896 ft | 413 kts | 197° |
| 2026-05-05 19:31 | 56.47551 | 23.46389 | 34895 ft | 413 kts | 197° |
| 2026-05-05 19:31 | 56.41906 | 23.44503 | 34895 ft | 412 kts | 197° |
| 2026-05-05 19:32 | 56.36266 | 23.42639 | 34893 ft | 413 kts | 195° |
| 2026-05-05 19:32 | 56.30536 | 23.41404 | 34895 ft | 416 kts | 192° |
| 2026-05-05 19:33 | 56.24773 | 23.40399 | 34892 ft | 416 kts | 192° |
| 2026-05-05 19:33 | 56.19020 | 23.39382 | 34885 ft | 415 kts | 193° |
| 2026-05-05 19:34 | 56.13275 | 23.38333 | 34890 ft | 415 kts | 193° |
| 2026-05-05 19:35 | 56.04681 | 23.36742 | 34877 ft | 413 kts | 193° |
| 2026-05-05 19:35 | 55.98969 | 23.35685 | 34883 ft | 412 kts | 193° |
| 2026-05-05 19:36 | 55.93265 | 23.34633 | 34880 ft | 412 kts | 193° |
| 2026-05-05 19:36 | 55.87567 | 23.33585 | 34883 ft | 412 kts | 193° |
| 2026-05-05 19:37 | 55.81871 | 23.32540 | 34882 ft | 412 kts | 193° |
| 2026-05-05 19:37 | 55.76167 | 23.31497 | 34888 ft | 412 kts | 193° |
| 2026-05-05 19:38 | 55.70456 | 23.30456 | 34892 ft | 413 kts | 193° |
| 2026-05-05 19:38 | 55.64738 | 23.29417 | 34887 ft | 413 kts | 193° |
| 2026-05-05 19:39 | 55.59042 | 23.28385 | 34893 ft | 415 kts | 193° |
| 2026-05-05 19:39 | 55.53291 | 23.27347 | 34897 ft | 416 kts | 193° |
| 2026-05-05 19:40 | 55.47514 | 23.26306 | 34893 ft | 418 kts | 193° |
| 2026-05-05 19:40 | 55.41720 | 23.25266 | 34865 ft | 419 kts | 193° |
| 2026-05-05 19:41 | 55.35912 | 23.24227 | 34882 ft | 420 kts | 193° |
| 2026-05-05 19:41 | 55.30085 | 23.23187 | 34886 ft | 421 kts | 193° |
| 2026-05-05 19:42 | 55.24250 | 23.22147 | 34890 ft | 422 kts | 192° |
| 2026-05-05 19:42 | 55.18407 | 23.21112 | 34896 ft | 422 kts | 192° |
| 2026-05-05 19:43 | 55.12558 | 23.20079 | 34876 ft | 423 kts | 192° |
| 2026-05-05 19:43 | 55.06699 | 23.19045 | 34885 ft | 424 kts | 192° |
| 2026-05-05 19:44 | 55.00829 | 23.18012 | 34889 ft | 425 kts | 192° |
| 2026-05-05 19:44 | 54.94943 | 23.16980 | 34889 ft | 426 kts | 192° |
| 2026-05-05 19:45 | 54.89045 | 23.15949 | 34891 ft | 426 kts | 192° |
| 2026-05-05 19:45 | 54.83148 | 23.14922 | 34882 ft | 426 kts | 192° |
| 2026-05-05 19:46 | 54.77235 | 23.13894 | 34888 ft | 427 kts | 192° |
| 2026-05-05 19:46 | 54.71320 | 23.12869 | 34890 ft | 427 kts | 192° |
| 2026-05-05 19:47 | 54.65404 | 23.11846 | 34893 ft | 428 kts | 192° |
| 2026-05-05 19:47 | 54.59478 | 23.10826 | 34868 ft | 428 kts | 192° |
| 2026-05-05 19:48 | 54.53553 | 23.09808 | 34882 ft | 428 kts | 192° |
| 2026-05-05 19:48 | 54.47627 | 23.08793 | 34886 ft | 428 kts | 192° |
| 2026-05-05 19:49 | 54.41738 | 23.07787 | 34880 ft | 428 kts | 192° |
| 2026-05-05 19:49 | 54.35813 | 23.06777 | 34883 ft | 428 kts | 192° |
| 2026-05-05 19:50 | 54.29960 | 23.05370 | 34882 ft | 420 kts | 201° |
| 2026-05-05 19:50 | 54.24556 | 23.01864 | 34881 ft | 415 kts | 207° |
| 2026-05-05 19:51 | 54.19190 | 22.98184 | 34877 ft | 416 kts | 207° |
| 2026-05-05 19:51 | 54.13771 | 22.94549 | 34508 ft | 418 kts | 207° |
| 2026-05-05 19:51 | 54.11078 | 22.92759 | 34262 ft | 414 kts | 207° |
| 2026-05-05 19:52 | 54.08397 | 22.90979 | 33999 ft | 414 kts | 207° |
| 2026-05-05 19:52 | 54.02806 | 22.88233 | 33883 ft | 423 kts | 198° |
| 2026-05-05 19:53 | 53.97015 | 22.86153 | 33879 ft | 427 kts | 198° |
| 2026-05-05 19:53 | 53.91214 | 22.84028 | 33860 ft | 426 kts | 198° |
| 2026-05-05 19:54 | 53.85440 | 22.81848 | 33855 ft | 424 kts | 198° |
| 2026-05-05 19:54 | 53.79689 | 22.79671 | 33857 ft | 423 kts | 198° |
| 2026-05-05 19:55 | 53.73947 | 22.77508 | 33858 ft | 423 kts | 198° |
| 2026-05-05 19:55 | 53.68206 | 22.75352 | 33857 ft | 423 kts | 198° |
| 2026-05-05 19:56 | 53.62466 | 22.73201 | 33855 ft | 423 kts | 198° |
| 2026-05-05 19:56 | 53.56716 | 22.71053 | 33836 ft | 423 kts | 198° |
| 2026-05-05 19:57 | 53.50998 | 22.68920 | 33852 ft | 424 kts | 198° |
| 2026-05-05 19:57 | 53.45224 | 22.66773 | 33841 ft | 426 kts | 198° |
| 2026-05-05 19:58 | 53.39428 | 22.64624 | 33834 ft | 427 kts | 198° |
| 2026-05-05 19:58 | 53.33621 | 22.62477 | 33822 ft | 428 kts | 197° |
| 2026-05-05 19:59 | 53.27803 | 22.60332 | 33808 ft | 428 kts | 197° |
| 2026-05-05 19:59 | 53.21983 | 22.58194 | 33825 ft | 428 kts | 197° |
| 2026-05-05 19:59 | 53.19063 | 22.57122 | 33460 ft | 433 kts | 197° |
| 2026-05-05 20:00 | 53.16140 | 22.56052 | 33086 ft | 427 kts | 197° |
| 2026-05-05 20:00 | 53.13250 | 22.54998 | 32605 ft | 422 kts | 197° |
| 2026-05-05 20:00 | 53.10401 | 22.53960 | 32148 ft | 418 kts | 197° |
| 2026-05-05 20:00 | 53.07576 | 22.52930 | 31738 ft | 413 kts | 197° |
| 2026-05-05 20:01 | 53.04787 | 22.51914 | 31296 ft | 409 kts | 196° |
| 2026-05-05 20:01 | 53.02021 | 22.50906 | 30872 ft | 405 kts | 196° |
| 2026-05-05 20:01 | 52.99279 | 22.49909 | 30443 ft | 402 kts | 196° |
| 2026-05-05 20:01 | 52.96558 | 22.48920 | 30032 ft | 398 kts | 196° |
| 2026-05-05 20:02 | 52.93863 | 22.47942 | 29575 ft | 395 kts | 196° |
| 2026-05-05 20:02 | 52.91186 | 22.46972 | 29123 ft | 391 kts | 196° |
| 2026-05-05 20:02 | 52.88544 | 22.46016 | 28691 ft | 387 kts | 196° |
| 2026-05-05 20:02 | 52.85924 | 22.45069 | 28253 ft | 383 kts | 196° |
| 2026-05-05 20:03 | 52.83335 | 22.44134 | 27837 ft | 379 kts | 196° |
| 2026-05-05 20:03 | 52.80773 | 22.43210 | 27406 ft | 376 kts | 196° |
| 2026-05-05 20:03 | 52.78228 | 22.42294 | 26987 ft | 373 kts | 195° |
| 2026-05-05 20:03 | 52.75683 | 22.41378 | 26291 ft | 377 kts | 195° |
| 2026-05-05 20:04 | 52.73104 | 22.40450 | 25664 ft | 380 kts | 195° |
| 2026-05-05 20:04 | 52.70557 | 22.39538 | 25232 ft | 378 kts | 195° |
| 2026-05-05 20:04 | 52.68001 | 22.38626 | 24851 ft | 374 kts | 195° |
| 2026-05-05 20:04 | 52.65472 | 22.37723 | 24449 ft | 371 kts | 195° |
| 2026-05-05 20:05 | 52.62955 | 22.36825 | 24029 ft | 369 kts | 195° |
| 2026-05-05 20:05 | 52.60453 | 22.35932 | 23590 ft | 367 kts | 195° |
| 2026-05-05 20:05 | 52.57958 | 22.35043 | 23125 ft | 366 kts | 195° |
| 2026-05-05 20:05 | 52.55480 | 22.34160 | 22591 ft | 365 kts | 195° |
| 2026-05-05 20:06 | 52.52965 | 22.33264 | 21725 ft | 373 kts | 194° |
| 2026-05-05 20:06 | 52.50420 | 22.32359 | 21092 ft | 375 kts | 194° |
| 2026-05-05 20:06 | 52.47884 | 22.31461 | 20641 ft | 371 kts | 194° |
| 2026-05-05 20:06 | 52.45370 | 22.30571 | 20221 ft | 367 kts | 195° |
| 2026-05-05 20:07 | 52.42886 | 22.29694 | 19771 ft | 364 kts | 195° |
| 2026-05-05 20:07 | 52.40414 | 22.28821 | 19310 ft | 362 kts | 195° |
| 2026-05-05 20:07 | 52.37960 | 22.27955 | 18861 ft | 360 kts | 195° |
| 2026-05-05 20:07 | 52.35519 | 22.27096 | 18432 ft | 357 kts | 194° |
| 2026-05-05 20:08 | 52.33097 | 22.26243 | 18012 ft | 354 kts | 194° |
| 2026-05-05 20:08 | 52.30696 | 22.25399 | 17538 ft | 352 kts | 194° |
| 2026-05-05 20:08 | 52.28315 | 22.24562 | 17105 ft | 348 kts | 195° |
| 2026-05-05 20:08 | 52.25959 | 22.23735 | 16677 ft | 345 kts | 195° |
| 2026-05-05 20:09 | 52.23627 | 22.22917 | 16249 ft | 342 kts | 195° |
| 2026-05-05 20:09 | 52.21313 | 22.22108 | 15820 ft | 339 kts | 195° |
| 2026-05-05 20:09 | 52.19113 | 22.20883 | 15364 ft | 332 kts | 212° |
| 2026-05-05 20:09 | 52.17386 | 22.18471 | 14967 ft | 326 kts | 232° |
| 2026-05-05 20:10 | 52.16244 | 22.15328 | 14581 ft | 322 kts | 247° |
| 2026-05-05 20:10 | 52.15797 | 22.13035 | 14296 ft | 322 kts | 257° |
| 2026-05-05 20:10 | 52.15662 | 22.09392 | 13885 ft | 323 kts | 269° |
| 2026-05-05 20:10 | 52.15746 | 22.05751 | 13464 ft | 321 kts | 269° |
| 2026-05-05 20:11 | 52.15839 | 22.02120 | 12914 ft | 321 kts | 268° |
| 2026-05-05 20:11 | 52.15515 | 21.98576 | 12440 ft | 316 kts | 248° |
| 2026-05-05 20:11 | 52.14630 | 21.95340 | 12051 ft | 311 kts | 243° |
| 2026-05-05 20:11 | 52.13673 | 21.92194 | 11614 ft | 309 kts | 242° |
| 2026-05-05 20:12 | 52.12705 | 21.89070 | 11174 ft | 308 kts | 242° |
| 2026-05-05 20:12 | 52.11743 | 21.85961 | 10747 ft | 307 kts | 243° |
| 2026-05-05 20:12 | 52.10792 | 21.82873 | 10411 ft | 303 kts | 243° |
| 2026-05-05 20:12 | 52.09871 | 21.79868 | 10323 ft | 290 kts | 243° |
| 2026-05-05 20:13 | 52.08990 | 21.76983 | 10237 ft | 279 kts | 243° |
| 2026-05-05 20:13 | 52.08144 | 21.74212 | 10151 ft | 269 kts | 243° |
| 2026-05-05 20:13 | 52.07326 | 21.71530 | 10004 ft | 261 kts | 243° |
| 2026-05-05 20:13 | 52.06529 | 21.68914 | 9795 ft | 257 kts | 243° |
| 2026-05-05 20:14 | 52.05736 | 21.66318 | 9493 ft | 256 kts | 243° |
| 2026-05-05 20:14 | 52.04946 | 21.63732 | 9182 ft | 255 kts | 243° |
| 2026-05-05 20:14 | 52.04158 | 21.61152 | 8895 ft | 254 kts | 243° |
| 2026-05-05 20:14 | 52.03376 | 21.58596 | 8596 ft | 252 kts | 243° |
| 2026-05-05 20:15 | 52.02594 | 21.56042 | 8297 ft | 252 kts | 243° |
| 2026-05-05 20:15 | 52.01817 | 21.53504 | 7994 ft | 251 kts | 242° |
| 2026-05-05 20:15 | 52.01033 | 21.50948 | 7639 ft | 253 kts | 242° |
| 2026-05-05 20:15 | 52.00251 | 21.48402 | 7353 ft | 252 kts | 242° |
| 2026-05-05 20:16 | 51.99473 | 21.45871 | 7093 ft | 250 kts | 242° |
| 2026-05-05 20:16 | 51.98697 | 21.43349 | 6837 ft | 248 kts | 242° |
| 2026-05-05 20:16 | 51.97930 | 21.40857 | 6587 ft | 246 kts | 242° |
| 2026-05-05 20:16 | 51.97165 | 21.38377 | 6326 ft | 245 kts | 242° |
| 2026-05-05 20:17 | 51.96405 | 21.35911 | 6087 ft | 243 kts | 242° |
| 2026-05-05 20:17 | 51.95668 | 21.33523 | 6023 ft | 232 kts | 242° |
| 2026-05-05 20:17 | 51.94958 | 21.31225 | 5956 ft | 223 kts | 242° |
| 2026-05-05 20:17 | 51.94278 | 21.29025 | 5886 ft | 214 kts | 242° |
| 2026-05-05 20:18 | 51.93626 | 21.26923 | 5714 ft | 210 kts | 242° |
| 2026-05-05 20:18 | 51.92972 | 21.24817 | 5474 ft | 209 kts | 242° |
| 2026-05-05 20:18 | 51.92325 | 21.22715 | 5231 ft | 208 kts | 245° |
| 2026-05-05 20:18 | 51.92105 | 21.20437 | 5049 ft | 210 kts | 275° |
| 2026-05-05 20:19 | 51.92624 | 21.18205 | 4899 ft | 218 kts | 300° |
| 2026-05-05 20:19 | 51.93752 | 21.16512 | 4736 ft | 227 kts | 324° |
| 2026-05-05 20:19 | 51.95146 | 21.15296 | 4578 ft | 228 kts | 327° |
| 2026-05-05 20:19 | 51.96528 | 21.14117 | 4439 ft | 220 kts | 327° |
| 2026-05-05 20:20 | 51.97870 | 21.13005 | 4190 ft | 215 kts | 328° |
| 2026-05-05 20:20 | 51.99194 | 21.11931 | 3901 ft | 210 kts | 327° |
| 2026-05-05 20:20 | 52.00467 | 21.10843 | 3613 ft | 205 kts | 326° |
| 2026-05-05 20:20 | 52.01710 | 21.09759 | 3350 ft | 200 kts | 326° |
| 2026-05-05 20:21 | 52.02928 | 21.08699 | 3085 ft | 197 kts | 326° |
| 2026-05-05 20:21 | 52.04111 | 21.07672 | 2819 ft | 187 kts | 325° |
| 2026-05-05 20:21 | 52.05216 | 21.06699 | 2561 ft | 175 kts | 323° |
| 2026-05-05 20:21 | 52.06251 | 21.05771 | 2322 ft | 165 kts | 324° |
| 2026-05-05 20:22 | 52.07209 | 21.04943 | 2174 ft | 153 kts | 328° |
| 2026-05-05 20:22 | 52.08121 | 21.04154 | 2021 ft | 147 kts | 329° |
| 2026-05-05 20:22 | 52.09016 | 21.03362 | 1844 ft | 147 kts | 326° |
| 2026-05-05 20:22 | 52.09888 | 21.02513 | 1633 ft | 146 kts | 330° |
| 2026-05-05 20:23 | 52.10770 | 21.01732 | 1419 ft | 143 kts | 334° |
| 2026-05-05 20:23 | 52.11652 | 21.00995 | 1232 ft | 143 kts | 335° |
| 2026-05-05 20:23 | 52.12561 | 21.00255 | 1019 ft | 147 kts | 333° |
| 2026-05-05 20:23 | 52.13456 | 20.99442 | 832 ft | 149 kts | 331° |
| 2026-05-05 20:24 | 52.14371 | 20.98637 | 640 ft | 148 kts | 330° |
| 2026-05-05 20:24 | 52.15277 | 20.97840 | 437 ft | 152 kts | 333° |
| 2026-05-05 20:24 | 52.16197 | 20.97036 | 338 ft | 142 kts | 332° |
| 2026-05-05 20:24 | 52.16891 | 20.96434 | 335 ft | 82 kts | 332° |
| 2026-05-05 20:25 | 52.17222 | 20.96149 | 334 ft | 37 kts | 333° |
| 2026-05-05 20:25 | 52.17406 | 20.96066 | 334 ft | 12 kts | 356° |
| 2026-05-05 20:25 | 52.17442 | 20.96063 | 335 ft | 4 kts | 357° |
| 2026-05-05 20:25 | 52.17473 | 20.96063 | 338 ft | 4 kts | 359° |
| 2026-05-05 20:26 | 52.17504 | 20.96063 | 336 ft | 4 kts | 359° |
| 2026-05-05 20:26 | 52.17533 | 20.96064 | 338 ft | 4 kts | 5° |
| 2026-05-05 20:26 | 52.17560 | 20.96079 | 338 ft | 4 kts | 38° |
| 2026-05-05 20:26 | 52.17577 | 20.96120 | 337 ft | 5 kts | 64° |
| 2026-05-05 20:27 | 52.17583 | 20.96190 | 334 ft | 9 kts | 97° |
| 2026-05-05 20:27 | 52.17526 | 20.96279 | 337 ft | 14 kts | 153° |
| 2026-05-05 20:27 | 52.17442 | 20.96351 | 336 ft | 13 kts | 152° |
| 2026-05-05 20:27 | 52.17363 | 20.96419 | 334 ft | 13 kts | 152° |
| 2026-05-05 20:28 | 52.17286 | 20.96489 | 338 ft | 12 kts | 152° |
| 2026-05-05 20:28 | 52.17205 | 20.96559 | 333 ft | 15 kts | 152° |
| 2026-05-05 20:28 | 52.17140 | 20.96630 | 338 ft | 10 kts | 126° |
| 2026-05-05 20:28 | 52.17145 | 20.96736 | 337 ft | 10 kts | 61° |
| 2026-05-05 20:29 | 52.17153 | 20.96835 | 338 ft | 10 kts | 125° |
| 2026-05-05 20:29 | 52.17098 | 20.96892 | 335 ft | 9 kts | 151° |
| 2026-05-05 20:29 | 52.17032 | 20.96949 | 333 ft | 13 kts | 152° |
| 2026-05-05 20:29 | 52.16942 | 20.97028 | 338 ft | 16 kts | 152° |
| 2026-05-05 20:30 | 52.16869 | 20.97097 | 336 ft | 9 kts | 132° |
| 2026-05-05 20:30 | 52.16871 | 20.97189 | 337 ft | 6 kts | 75° |
| 2026-05-05 20:30 | 52.16878 | 20.97231 | 335 ft | 2 kts | 75° |
| 2026-05-05 20:30 | 52.16881 | 20.97249 | 337 ft | 0 kts | 75° |